Time,TemperatureF,DewpointF,PressureIn,WindDirection,WindDirectionDegrees,WindSpeedMPH,WindSpeedGustMPH,Humidity,HourlyPrecipIn,Conditions,Clouds,dailyrainin,SoftwareType,DateUTC
2013-02-12 00:01:00,38.5,34.1,30.18,West,273,0.0,0.0,84,0.00,,,0.00,Wunderground v.1.13,2013-02-12 05:01:00,
2013-02-12 00:02:00,38.4,34.0,30.18,West,273,0.0,0.0,84,0.00,,,0.00,Wunderground v.1.13,2013-02-12 05:02:00,
2013-02-12 00:08:00,38.2,33.8,30.18,West,273,0.0,0.0,84,0.00,,,0.00,Wunderground v.1.13,2013-02-12 05:08:00,
2013-02-12 00:09:00,38.1,33.7,30.18,West,273,0.0,0.0,84,0.00,,,0.00,Wunderground v.1.13,2013-02-12 05:09:00,
2013-02-12 00:15:00,37.9,33.8,30.19,West,273,0.0,0.0,85,0.00,,,0.00,Wunderground v.1.13,2013-02-12 05:15:00,
2013-02-12 00:20:00,37.8,33.7,30.18,West,273,0.0,0.0,85,0.00,,,0.00,Wunderground v.1.13,2013-02-12 05:20:00,
2013-02-12 00:26:00,37.6,33.5,30.18,West,273,0.0,0.0,85,0.00,,,0.00,Wunderground v.1.13,2013-02-12 05:26:00,
2013-02-12 00:32:00,37.3,33.2,30.18,West,273,0.0,0.0,85,0.00,,,0.00,Wunderground v.1.13,2013-02-12 05:32:00,
2013-02-12 00:38:00,37.2,33.4,30.18,West,273,0.0,1.0,86,0.00,,,0.00,Wunderground v.1.13,2013-02-12 05:38:00,
2013-02-12 00:43:00,37.0,33.2,30.18,West,273,0.0,0.0,86,0.00,,,0.00,Wunderground v.1.13,2013-02-12 05:43:00,
2013-02-12 00:49:00,36.9,33.1,30.19,West,273,0.0,0.0,86,0.00,,,0.00,Wunderground v.1.13,2013-02-12 05:49:00,
2013-02-12 00:54:00,36.8,33.0,30.19,West,273,0.0,0.0,86,0.00,,,0.00,Wunderground v.1.13,2013-02-12 05:54:00,
2013-02-12 01:00:00,36.5,32.7,30.20,West,273,0.0,0.0,86,0.00,,,0.00,Wunderground v.1.13,2013-02-12 06:00:00,
2013-02-12 01:05:00,36.4,32.6,30.19,West,273,0.0,0.0,86,0.00,,,0.00,Wunderground v.1.13,2013-02-12 06:05:00,
2013-02-12 01:10:00,36.2,32.4,30.20,West,273,0.0,0.0,86,0.00,,,0.00,Wunderground v.1.13,2013-02-12 06:10:00,
2013-02-12 01:16:00,35.9,32.1,30.19,West,273,0.0,0.0,86,0.00,,,0.00,Wunderground v.1.13,2013-02-12 06:16:00,
2013-02-12 01:22:00,35.7,31.9,30.20,West,273,0.0,0.0,86,0.00,,,0.00,Wunderground v.1.13,2013-02-12 06:22:00,
2013-02-12 01:27:00,35.4,31.6,30.21,West,273,0.0,0.0,86,0.00,,,0.00,Wunderground v.1.13,2013-02-12 06:27:00,
2013-02-12 01:33:00,35.1,31.3,30.19,West,273,0.0,0.0,86,0.00,,,0.00,Wunderground v.1.13,2013-02-12 06:33:00,
2013-02-12 01:39:00,34.9,31.4,30.19,West,273,0.0,2.0,87,0.00,,,0.00,Wunderground v.1.13,2013-02-12 06:39:00,
2013-02-12 01:44:00,34.6,31.1,30.20,West,273,0.0,0.0,87,0.00,,,0.00,Wunderground v.1.13,2013-02-12 06:44:00,
2013-02-12 01:50:00,34.4,30.9,30.20,West,273,0.0,0.0,87,0.00,,,0.00,Wunderground v.1.13,2013-02-12 06:50:00,
2013-02-12 01:57:00,34.4,30.9,30.20,West,273,0.0,0.0,87,0.00,,,0.00,Wunderground v.1.13,2013-02-12 06:57:00,
2013-02-12 02:02:00,34.2,30.7,30.21,West,273,0.0,0.0,87,0.00,,,0.00,Wunderground v.1.13,2013-02-12 07:02:00,
2013-02-12 02:08:00,34.0,30.8,30.21,West,273,0.0,0.0,88,0.00,,,0.00,Wunderground v.1.13,2013-02-12 07:08:00,
2013-02-12 02:13:00,33.8,30.6,30.20,West,273,0.0,0.0,88,0.00,,,0.00,Wunderground v.1.13,2013-02-12 07:13:00,
2013-02-12 02:20:00,33.5,30.3,30.20,West,273,0.0,0.0,88,0.00,,,0.00,Wunderground v.1.13,2013-02-12 07:20:00,
2013-02-12 02:26:00,33.4,30.2,30.20,West,273,0.0,0.0,88,0.00,,,0.00,Wunderground v.1.13,2013-02-12 07:26:00,
2013-02-12 02:32:00,33.3,30.1,30.21,West,273,0.0,0.0,88,0.00,,,0.00,Wunderground v.1.13,2013-02-12 07:32:00,
2013-02-12 02:37:00,33.2,30.0,30.21,West,273,0.0,0.0,88,0.00,,,0.00,Wunderground v.1.13,2013-02-12 07:37:00,
2013-02-12 02:43:00,33.2,30.0,30.20,West,273,0.0,0.0,88,0.00,,,0.00,Wunderground v.1.13,2013-02-12 07:43:00,
2013-02-12 02:48:00,33.2,30.3,30.20,West,273,0.0,0.0,89,0.00,,,0.00,Wunderground v.1.13,2013-02-12 07:48:00,
2013-02-12 02:54:00,33.0,30.1,30.21,West,273,0.0,0.0,89,0.00,,,0.00,Wunderground v.1.13,2013-02-12 07:54:00,
2013-02-12 02:59:00,32.8,29.9,30.21,West,273,0.0,0.0,89,0.00,,,0.00,Wunderground v.1.13,2013-02-12 07:59:00,
2013-02-12 03:04:00,32.7,29.8,30.21,West,273,0.0,0.0,89,0.00,,,0.00,Wunderground v.1.13,2013-02-12 08:04:00,
2013-02-12 03:10:00,32.6,29.7,30.21,West,273,0.0,0.0,89,0.00,,,0.00,Wunderground v.1.13,2013-02-12 08:10:00,
2013-02-12 03:16:00,32.4,29.5,30.21,West,273,0.0,0.0,89,0.00,,,0.00,Wunderground v.1.13,2013-02-12 08:16:00,
2013-02-12 03:21:00,32.1,29.2,30.21,West,273,0.0,0.0,89,0.00,,,0.00,Wunderground v.1.13,2013-02-12 08:21:00,
2013-02-12 03:27:00,32.0,29.1,30.21,West,273,0.0,0.0,89,0.00,,,0.00,Wunderground v.1.13,2013-02-12 08:27:00,
2013-02-12 03:32:00,31.8,28.9,30.21,West,273,0.0,0.0,89,0.00,,,0.00,Wunderground v.1.13,2013-02-12 08:32:00,
2013-02-12 03:37:00,31.6,28.7,30.21,West,273,0.0,0.0,89,0.00,,,0.00,Wunderground v.1.13,2013-02-12 08:37:00,
2013-02-12 03:43:00,31.5,28.6,30.21,West,273,0.0,0.0,89,0.00,,,0.00,Wunderground v.1.13,2013-02-12 08:43:00,
2013-02-12 03:49:00,31.4,28.5,30.21,West,273,0.0,0.0,89,0.00,,,0.00,Wunderground v.1.13,2013-02-12 08:49:00,
2013-02-12 03:54:00,31.2,28.3,30.21,West,273,0.0,0.0,89,0.00,,,0.00,Wunderground v.1.13,2013-02-12 08:54:00,
2013-02-12 04:00:00,31.1,28.2,30.21,West,273,0.0,0.0,89,0.00,,,0.00,Wunderground v.1.13,2013-02-12 09:00:00,
2013-02-12 04:06:00,31.0,28.4,30.22,West,273,0.0,0.0,90,0.00,,,0.00,Wunderground v.1.13,2013-02-12 09:06:00,
2013-02-12 04:11:00,30.8,28.2,30.22,West,273,0.0,0.0,90,0.00,,,0.00,Wunderground v.1.13,2013-02-12 09:11:00,
2013-02-12 04:17:00,30.7,28.1,30.22,West,273,0.0,0.0,90,0.00,,,0.00,Wunderground v.1.13,2013-02-12 09:17:00,
2013-02-12 04:23:00,30.6,28.0,30.22,West,273,0.0,0.0,90,0.00,,,0.00,Wunderground v.1.13,2013-02-12 09:23:00,
2013-02-12 04:28:00,30.5,27.9,30.22,West,273,0.0,0.0,90,0.00,,,0.00,Wunderground v.1.13,2013-02-12 09:28:00,
2013-02-12 04:34:00,30.5,27.9,30.21,West,273,0.0,0.0,90,0.00,,,0.00,Wunderground v.1.13,2013-02-12 09:34:00,
2013-02-12 04:40:00,30.5,27.9,30.22,West,273,0.0,0.0,90,0.00,,,0.00,Wunderground v.1.13,2013-02-12 09:40:00,
2013-02-12 04:45:00,30.5,27.9,30.23,West,273,0.0,0.0,90,0.00,,,0.00,Wunderground v.1.13,2013-02-12 09:45:00,
2013-02-12 04:51:00,30.4,27.8,30.23,West,273,0.0,0.0,90,0.00,,,0.00,Wunderground v.1.13,2013-02-12 09:51:00,
2013-02-12 04:57:00,30.4,28.1,30.23,West,273,0.0,0.0,91,0.00,,,0.00,Wunderground v.1.13,2013-02-12 09:57:00,
2013-02-12 05:03:00,30.4,28.1,30.22,West,273,0.0,0.0,91,0.00,,,0.00,Wunderground v.1.13,2013-02-12 10:03:00,
2013-02-12 05:08:00,30.4,28.1,30.22,West,273,0.0,0.0,91,0.00,,,0.00,Wunderground v.1.13,2013-02-12 10:08:00,
2013-02-12 05:14:00,30.4,28.1,30.21,West,273,0.0,0.0,91,0.00,,,0.00,Wunderground v.1.13,2013-02-12 10:14:00,
2013-02-12 05:19:00,30.3,28.0,30.21,West,273,0.0,0.0,91,0.00,,,0.00,Wunderground v.1.13,2013-02-12 10:19:00,
2013-02-12 05:25:00,30.4,28.1,30.22,West,273,0.0,0.0,91,0.00,,,0.00,Wunderground v.1.13,2013-02-12 10:25:00,
2013-02-12 05:31:00,30.5,28.2,30.21,West,273,0.0,0.0,91,0.00,,,0.00,Wunderground v.1.13,2013-02-12 10:31:00,
2013-02-12 05:37:00,30.6,28.6,30.21,West,273,0.0,0.0,92,0.00,,,0.00,Wunderground v.1.13,2013-02-12 10:37:00,
2013-02-12 05:42:00,30.6,28.6,30.21,West,273,0.0,0.0,92,0.00,,,0.00,Wunderground v.1.13,2013-02-12 10:42:00,
2013-02-12 05:48:00,30.6,28.6,30.22,West,273,0.0,0.0,92,0.00,,,0.00,Wunderground v.1.13,2013-02-12 10:48:00,
2013-02-12 05:54:00,30.4,28.1,30.21,West,273,0.0,0.0,91,0.00,,,0.00,Wunderground v.1.13,2013-02-12 10:54:00,
2013-02-12 05:59:00,30.3,28.3,30.22,West,273,0.0,0.0,92,0.00,,,0.00,Wunderground v.1.13,2013-02-12 10:59:00,
2013-02-12 06:05:00,30.3,28.3,30.22,West,273,0.0,0.0,92,0.00,,,0.00,Wunderground v.1.13,2013-02-12 11:05:00,
2013-02-12 06:11:00,30.3,28.3,30.23,West,273,0.0,0.0,92,0.00,,,0.00,Wunderground v.1.13,2013-02-12 11:11:00,
2013-02-12 06:16:00,30.3,28.3,30.23,West,273,0.0,0.0,92,0.00,,,0.00,Wunderground v.1.13,2013-02-12 11:16:00,
2013-02-12 06:22:00,30.4,28.4,30.23,West,273,0.0,0.0,92,0.00,,,0.00,Wunderground v.1.13,2013-02-12 11:22:00,
2013-02-12 06:28:00,30.4,28.4,30.24,West,273,0.0,0.0,92,0.00,,,0.00,Wunderground v.1.13,2013-02-12 11:28:00,
2013-02-12 06:34:00,30.4,28.4,30.24,West,273,0.0,0.0,92,0.00,,,0.00,Wunderground v.1.13,2013-02-12 11:34:00,
2013-02-12 06:39:00,30.5,28.5,30.23,West,273,0.0,0.0,92,0.00,,,0.00,Wunderground v.1.13,2013-02-12 11:39:00,
2013-02-12 06:46:00,30.6,28.8,30.24,West,273,0.0,0.0,93,0.00,,,0.00,Wunderground v.1.13,2013-02-12 11:46:00,
2013-02-12 06:52:00,30.7,28.9,30.24,West,273,0.0,0.0,93,0.00,,,0.00,Wunderground v.1.13,2013-02-12 11:52:00,
2013-02-12 06:57:00,30.7,28.9,30.24,West,273,0.0,0.0,93,0.00,,,0.00,Wunderground v.1.13,2013-02-12 11:57:00,
2013-02-12 07:02:00,30.7,28.9,30.24,West,273,0.0,0.0,93,0.00,,,0.00,Wunderground v.1.13,2013-02-12 12:02:00,
2013-02-12 07:08:00,30.7,28.9,30.24,West,273,0.0,0.0,93,0.00,,,0.00,Wunderground v.1.13,2013-02-12 12:08:00,
2013-02-12 07:13:00,30.6,28.8,30.24,West,273,0.0,0.0,93,0.00,,,0.00,Wunderground v.1.13,2013-02-12 12:13:00,
2013-02-12 07:19:00,30.6,28.6,30.24,West,273,0.0,0.0,92,0.00,,,0.00,Wunderground v.1.13,2013-02-12 12:19:00,
2013-02-12 07:25:00,30.7,28.9,30.24,West,273,0.0,0.0,93,0.00,,,0.00,Wunderground v.1.13,2013-02-12 12:25:00,
2013-02-12 07:30:00,30.9,29.1,30.23,West,273,0.0,1.0,93,0.00,,,0.00,Wunderground v.1.13,2013-02-12 12:30:00,
2013-02-12 07:36:00,31.1,29.3,30.23,West,273,0.0,0.0,93,0.00,,,0.00,Wunderground v.1.13,2013-02-12 12:36:00,
2013-02-12 07:42:00,31.1,29.3,30.23,West,273,0.0,0.0,93,0.00,,,0.00,Wunderground v.1.13,2013-02-12 12:42:00,
2013-02-12 07:47:00,31.1,29.3,30.23,West,273,0.0,0.0,93,0.00,,,0.00,Wunderground v.1.13,2013-02-12 12:47:00,
2013-02-12 07:53:00,31.2,29.4,30.24,West,273,0.0,0.0,93,0.00,,,0.00,Wunderground v.1.13,2013-02-12 12:53:00,
2013-02-12 07:59:00,31.4,29.6,30.25,West,273,0.0,0.0,93,0.00,,,0.00,Wunderground v.1.13,2013-02-12 12:59:00,
2013-02-12 08:04:00,31.5,29.7,30.25,West,273,0.0,0.0,93,0.00,,,0.00,Wunderground v.1.13,2013-02-12 13:04:00,
2013-02-12 08:10:00,31.7,29.9,30.25,West,273,0.0,0.0,93,0.00,,,0.00,Wunderground v.1.13,2013-02-12 13:10:00,
2013-02-12 08:15:00,32.1,30.6,30.25,West,273,0.0,0.0,94,0.00,,,0.00,Wunderground v.1.13,2013-02-12 13:15:00,
2013-02-12 08:21:00,32.7,31.2,30.26,West,273,0.0,0.0,94,0.00,,,0.00,Wunderground v.1.13,2013-02-12 13:21:00,
2013-02-12 08:26:00,33.7,32.2,30.26,West,273,0.0,0.0,94,0.00,,,0.00,Wunderground v.1.13,2013-02-12 13:26:00,
2013-02-12 08:31:00,34.4,32.9,30.26,West,273,0.0,0.0,94,0.00,,,0.00,Wunderground v.1.13,2013-02-12 13:31:00,
2013-02-12 08:37:00,34.5,33.0,30.26,West,273,0.0,0.0,94,0.00,,,0.00,Wunderground v.1.13,2013-02-12 13:37:00,
2013-02-12 08:43:00,35.5,33.9,30.26,West,273,0.0,0.0,94,0.00,,,0.00,Wunderground v.1.13,2013-02-12 13:43:00,
2013-02-12 08:48:00,36.2,34.4,30.26,West,273,0.0,0.0,93,0.00,,,0.00,Wunderground v.1.13,2013-02-12 13:48:00,
2013-02-12 08:54:00,36.6,34.5,30.26,West,273,0.0,0.0,92,0.00,,,0.00,Wunderground v.1.13,2013-02-12 13:54:00,
2013-02-12 08:59:00,37.4,34.7,30.26,West,273,0.0,0.0,90,0.00,,,0.00,Wunderground v.1.13,2013-02-12 13:59:00,
2013-02-12 09:05:00,38.8,35.6,30.26,West,273,0.0,0.0,88,0.00,,,0.00,Wunderground v.1.13,2013-02-12 14:05:00,
2013-02-12 09:11:00,40.6,36.4,30.26,West,273,0.0,0.0,85,0.00,,,0.00,Wunderground v.1.13,2013-02-12 14:11:00,
2013-02-12 09:16:00,41.8,36.1,30.25,West,273,0.0,1.0,80,0.00,,,0.00,Wunderground v.1.13,2013-02-12 14:16:00,
2013-02-12 09:22:00,42.6,35.2,30.25,West,273,0.0,0.0,75,0.00,,,0.00,Wunderground v.1.13,2013-02-12 14:22:00,
2013-02-12 09:27:00,43.3,35.9,30.25,West,273,0.0,0.0,75,0.00,,,0.00,Wunderground v.1.13,2013-02-12 14:27:00,
2013-02-12 09:33:00,43.7,35.3,30.23,West,273,0.0,0.0,72,0.00,,,0.00,Wunderground v.1.13,2013-02-12 14:33:00,
2013-02-12 09:39:00,44.0,34.8,30.24,West,273,0.0,0.0,70,0.00,,,0.00,Wunderground v.1.13,2013-02-12 14:39:00,
2013-02-12 09:45:00,44.3,34.0,30.24,West,273,0.0,0.0,67,0.00,,,0.00,Wunderground v.1.13,2013-02-12 14:45:00,
2013-02-12 09:50:00,44.9,34.6,30.23,West,273,0.0,0.0,67,0.00,,,0.00,Wunderground v.1.13,2013-02-12 14:50:00,
2013-02-12 09:56:00,45.7,33.4,30.22,West,273,0.0,3.0,62,0.00,,,0.00,Wunderground v.1.13,2013-02-12 14:56:00,
2013-02-12 10:02:00,45.9,32.8,30.23,ESE,105,2.0,5.0,60,0.00,,,0.00,Wunderground v.1.13,2013-02-12 15:02:00,
2013-02-12 10:07:00,46.1,31.3,30.23,ESE,105,1.0,2.0,56,0.00,,,0.00,Wunderground v.1.13,2013-02-12 15:07:00,
2013-02-12 10:13:00,46.7,30.5,30.23,East,84,1.0,2.0,53,0.00,,,0.00,Wunderground v.1.13,2013-02-12 15:13:00,
2013-02-12 10:19:00,47.3,30.1,30.23,East,84,2.0,2.0,51,0.00,,,0.00,Wunderground v.1.13,2013-02-12 15:19:00,
2013-02-12 10:25:00,47.6,29.9,30.22,East,85,2.0,2.0,50,0.00,,,0.00,Wunderground v.1.13,2013-02-12 15:25:00,
2013-02-12 10:31:00,48.2,30.4,30.22,East,88,1.0,4.0,50,0.00,,,0.00,Wunderground v.1.13,2013-02-12 15:31:00,
2013-02-12 10:37:00,48.2,29.9,30.21,East,96,2.0,2.0,49,0.00,,,0.00,Wunderground v.1.13,2013-02-12 15:37:00,
2013-02-12 10:42:00,48.7,29.9,30.21,East,84,0.0,3.0,48,0.00,,,0.00,Wunderground v.1.13,2013-02-12 15:42:00,
2013-02-12 10:48:00,49.0,29.1,30.21,ENE,62,1.0,4.0,46,0.00,,,0.00,Wunderground v.1.13,2013-02-12 15:48:00,
2013-02-12 10:54:00,49.0,29.6,30.20,East,82,3.0,4.0,47,0.00,,,0.00,Wunderground v.1.13,2013-02-12 15:54:00,
2013-02-12 10:59:00,49.2,29.8,30.20,East,92,2.0,5.0,47,0.00,,,0.00,Wunderground v.1.13,2013-02-12 15:59:00,
2013-02-12 11:04:00,49.1,29.2,30.20,East,94,2.0,2.0,46,0.00,,,0.00,Wunderground v.1.13,2013-02-12 16:04:00,
2013-02-12 11:10:00,49.3,29.4,30.18,ENE,77,2.0,2.0,46,0.00,,,0.00,Wunderground v.1.13,2013-02-12 16:10:00,
2013-02-12 11:15:00,49.7,29.2,30.17,East,79,2.0,2.0,45,0.00,,,0.00,Wunderground v.1.13,2013-02-12 16:15:00,
2013-02-12 11:21:00,50.0,28.9,30.15,East,87,2.0,10.0,44,0.00,,,0.00,Wunderground v.1.13,2013-02-12 16:21:00,
2013-02-12 11:26:00,49.9,29.4,30.15,East,91,4.0,6.0,45,0.00,,,0.00,Wunderground v.1.13,2013-02-12 16:26:00,
2013-02-12 11:32:00,49.7,28.6,30.16,East,94,5.0,5.0,44,0.00,,,0.00,Wunderground v.1.13,2013-02-12 16:32:00,
2013-02-12 11:38:00,50.0,29.5,30.15,ESE,105,3.0,5.0,45,0.00,,,0.00,Wunderground v.1.13,2013-02-12 16:38:00,
2013-02-12 11:43:00,50.6,28.9,30.15,NE,47,3.0,5.0,43,0.00,,,0.00,Wunderground v.1.13,2013-02-12 16:43:00,
2013-02-12 11:49:00,50.8,28.5,30.16,NNE,30,2.0,2.0,42,0.00,,,0.00,Wunderground v.1.13,2013-02-12 16:49:00,
2013-02-12 11:54:00,51.0,27.5,30.16,NNE,30,1.0,1.0,40,0.00,,,0.00,Wunderground v.1.13,2013-02-12 16:54:00,
2013-02-12 12:00:00,51.9,28.9,30.16,NE,37,0.0,4.0,41,0.00,,,0.00,Wunderground v.1.13,2013-02-12 17:00:00,
2013-02-12 12:06:00,52.0,30.2,30.15,East,85,2.0,4.0,43,0.00,,,0.00,Wunderground v.1.13,2013-02-12 17:06:00,
2013-02-12 12:12:00,52.2,30.4,30.16,East,96,2.0,3.0,43,0.00,,,0.00,Wunderground v.1.13,2013-02-12 17:12:00,
2013-02-12 12:18:00,52.1,30.3,30.16,East,92,1.0,2.0,43,0.00,,,0.00,Wunderground v.1.13,2013-02-12 17:18:00,
2013-02-12 12:24:00,52.4,31.1,30.16,ESE,105,1.0,5.0,44,0.00,,,0.00,Wunderground v.1.13,2013-02-12 17:24:00,
2013-02-12 12:29:00,52.5,31.2,30.16,East,90,1.0,1.0,44,0.00,,,0.00,Wunderground v.1.13,2013-02-12 17:29:00,
2013-02-12 12:35:00,53.0,32.2,30.16,East,90,1.0,1.0,45,0.00,,,0.00,Wunderground v.1.13,2013-02-12 17:35:00,
2013-02-12 12:41:00,53.1,31.2,30.16,ESE,114,1.0,1.0,43,0.00,,,0.00,Wunderground v.1.13,2013-02-12 17:41:00,
2013-02-12 12:47:00,53.3,31.4,30.16,WSW,254,1.0,3.0,43,0.00,,,0.00,Wunderground v.1.13,2013-02-12 17:47:00,
2013-02-12 12:52:00,53.7,32.3,30.16,NW,304,1.0,3.0,44,0.00,,,0.00,Wunderground v.1.13,2013-02-12 17:52:00,
2013-02-12 12:58:00,53.3,30.8,30.17,North,11,2.0,4.0,42,0.00,,,0.00,Wunderground v.1.13,2013-02-12 17:58:00,
2013-02-12 13:04:00,52.8,31.5,30.17,NW,324,3.0,6.0,44,0.00,,,0.00,Wunderground v.1.13,2013-02-12 18:04:00,
2013-02-12 13:10:00,52.7,32.5,30.16,NW,323,3.0,5.0,46,0.00,,,0.00,Wunderground v.1.13,2013-02-12 18:10:00,
2013-02-12 13:15:00,52.6,31.3,30.16,WNW,291,4.0,4.0,44,0.00,,,0.00,Wunderground v.1.13,2013-02-12 18:15:00,
2013-02-12 13:21:00,52.5,30.6,30.14,WNW,302,4.0,4.0,43,0.00,,,0.00,Wunderground v.1.13,2013-02-12 18:21:00,
2013-02-12 13:26:00,52.8,31.5,30.16,WNW,302,1.0,2.0,44,0.00,,,0.00,Wunderground v.1.13,2013-02-12 18:26:00,
2013-02-12 13:32:00,53.1,31.2,30.16,WNW,302,0.0,1.0,43,0.00,,,0.00,Wunderground v.1.13,2013-02-12 18:32:00,
2013-02-12 13:38:00,53.2,31.3,30.15,WNW,302,0.0,0.0,43,0.00,,,0.00,Wunderground v.1.13,2013-02-12 18:38:00,
2013-02-12 13:43:00,53.1,31.7,30.15,WNW,302,0.0,0.0,44,0.00,,,0.00,Wunderground v.1.13,2013-02-12 18:43:00,
2013-02-12 13:49:00,53.2,31.3,30.15,WNW,302,0.0,0.0,43,0.00,,,0.00,Wunderground v.1.13,2013-02-12 18:49:00,
2013-02-12 13:55:00,53.1,30.6,30.15,WNW,302,0.0,0.0,42,0.00,,,0.00,Wunderground v.1.13,2013-02-12 18:55:00,
2013-02-12 14:01:00,52.9,31.0,30.13,NE,35,0.0,0.0,43,0.00,,,0.00,Wunderground v.1.13,2013-02-12 19:01:00,
2013-02-12 14:06:00,52.7,30.8,30.12,NE,35,0.0,2.0,43,0.00,,,0.00,Wunderground v.1.13,2013-02-12 19:06:00,
2013-02-12 14:12:00,52.5,31.2,30.11,NE,34,1.0,3.0,44,0.00,,,0.00,Wunderground v.1.13,2013-02-12 19:12:00,
2013-02-12 14:18:00,51.9,30.6,30.10,NE,38,2.0,5.0,44,0.00,,,0.00,Wunderground v.1.13,2013-02-12 19:18:00,
2013-02-12 14:23:00,51.6,30.4,30.10,NNE,30,3.0,5.0,44,0.00,,,0.00,Wunderground v.1.13,2013-02-12 19:23:00,
2013-02-12 14:29:00,51.2,30.0,30.09,NNE,33,3.0,4.0,44,0.00,,,0.00,Wunderground v.1.13,2013-02-12 19:29:00,
2013-02-12 14:35:00,51.1,29.9,30.10,NNE,33,2.0,2.0,44,0.00,,,0.00,Wunderground v.1.13,2013-02-12 19:35:00,
2013-02-12 14:40:00,51.1,30.5,30.11,NNE,33,1.0,1.0,45,0.00,,,0.00,Wunderground v.1.13,2013-02-12 19:40:00,
2013-02-12 14:46:00,51.1,29.9,30.13,NNE,26,1.0,3.0,44,0.00,,,0.00,Wunderground v.1.13,2013-02-12 19:46:00,
2013-02-12 14:52:00,51.1,30.5,30.13,NNE,26,1.0,1.0,45,0.00,,,0.00,Wunderground v.1.13,2013-02-12 19:52:00,
2013-02-12 14:57:00,51.1,31.0,30.13,NNE,26,0.0,1.0,46,0.00,,,0.00,Wunderground v.1.13,2013-02-12 19:57:00,
2013-02-12 15:03:00,51.1,31.0,30.13,NNE,26,0.0,0.0,46,0.00,,,0.00,Wunderground v.1.13,2013-02-12 20:03:00,
2013-02-12 15:09:00,51.0,30.9,30.13,NNE,26,0.0,2.0,46,0.00,,,0.00,Wunderground v.1.13,2013-02-12 20:09:00,
2013-02-12 15:14:00,51.0,30.4,30.13,NNE,26,0.0,0.0,45,0.00,,,0.00,Wunderground v.1.13,2013-02-12 20:14:00,
2013-02-12 15:20:00,51.0,31.5,30.12,NNE,26,0.0,0.0,47,0.00,,,0.00,Wunderground v.1.13,2013-02-12 20:20:00,
2013-02-12 15:26:00,50.9,31.4,30.12,NNE,26,0.0,0.0,47,0.00,,,0.00,Wunderground v.1.13,2013-02-12 20:26:00,
2013-02-12 15:31:00,50.8,31.3,30.13,NNE,26,0.0,0.0,47,0.00,,,0.00,Wunderground v.1.13,2013-02-12 20:31:00,
2013-02-12 15:36:00,50.7,30.7,30.13,NNE,26,0.0,0.0,46,0.00,,,0.00,Wunderground v.1.13,2013-02-12 20:36:00,
2013-02-12 15:42:00,50.6,30.6,30.11,NNE,26,0.0,0.0,46,0.00,,,0.00,Wunderground v.1.13,2013-02-12 20:42:00,
2013-02-12 15:48:00,50.5,31.0,30.11,NNE,26,0.0,0.0,47,0.00,,,0.00,Wunderground v.1.13,2013-02-12 20:48:00,
2013-02-12 15:53:00,50.5,31.0,30.11,NNE,26,0.0,0.0,47,0.00,,,0.00,Wunderground v.1.13,2013-02-12 20:53:00,
2013-02-12 15:59:00,50.3,29.7,30.09,NNE,26,0.0,0.0,45,0.00,,,0.00,Wunderground v.1.13,2013-02-12 20:59:00,
2013-02-12 16:04:00,50.4,30.9,30.09,NNE,26,0.0,0.0,47,0.00,,,0.00,Wunderground v.1.13,2013-02-12 21:04:00,
2013-02-12 16:09:00,50.3,30.8,30.10,NNE,26,0.0,0.0,47,0.00,,,0.00,Wunderground v.1.13,2013-02-12 21:09:00,
2013-02-12 16:15:00,50.3,30.8,30.11,NNE,26,0.0,0.0,47,0.00,,,0.00,Wunderground v.1.13,2013-02-12 21:15:00,
2013-02-12 16:20:00,50.4,30.9,30.10,NNE,26,0.0,0.0,47,0.00,,,0.00,Wunderground v.1.13,2013-02-12 21:20:00,
2013-02-12 16:26:00,50.3,30.8,30.09,NNE,26,0.0,0.0,47,0.00,,,0.00,Wunderground v.1.13,2013-02-12 21:26:00,
2013-02-12 16:32:00,50.2,31.2,30.09,NNE,26,0.0,0.0,48,0.00,,,0.00,Wunderground v.1.13,2013-02-12 21:32:00,
2013-02-12 16:38:00,50.1,31.2,30.10,NNE,26,0.0,0.0,48,0.00,,,0.00,Wunderground v.1.13,2013-02-12 21:38:00,
2013-02-12 16:43:00,50.0,32.1,30.09,NNE,26,0.0,0.0,50,0.00,,,0.00,Wunderground v.1.13,2013-02-12 21:43:00,
2013-02-12 16:49:00,49.9,31.5,30.09,NNE,26,0.0,0.0,49,0.00,,,0.00,Wunderground v.1.13,2013-02-12 21:49:00,
2013-02-12 16:54:00,49.7,31.3,30.08,NNE,26,0.0,0.0,49,0.00,,,0.00,Wunderground v.1.13,2013-02-12 21:54:00,
2013-02-12 17:00:00,49.6,31.7,30.07,NNE,27,1.0,3.0,50,0.00,,,0.00,Wunderground v.1.13,2013-02-12 22:00:00,
2013-02-12 17:05:00,49.5,32.1,30.07,NNE,27,1.0,1.0,51,0.00,,,0.00,Wunderground v.1.13,2013-02-12 22:05:00,
2013-02-12 17:11:00,49.4,32.5,30.07,NNE,27,0.0,0.0,52,0.00,,,0.00,Wunderground v.1.13,2013-02-12 22:11:00,
2013-02-12 17:16:00,49.3,32.9,30.06,NNE,27,0.0,0.0,53,0.00,,,0.00,Wunderground v.1.13,2013-02-12 22:16:00,
2013-02-12 17:21:00,49.2,32.3,30.07,NNE,27,0.0,0.0,52,0.00,,,0.00,Wunderground v.1.13,2013-02-12 22:21:00,
2013-02-12 17:27:00,49.1,32.7,30.07,NNE,27,0.0,0.0,53,0.00,,,0.00,Wunderground v.1.13,2013-02-12 22:27:00,
2013-02-12 17:33:00,48.9,33.0,30.07,NNE,27,0.0,0.0,54,0.00,,,0.00,Wunderground v.1.13,2013-02-12 22:33:00,
2013-02-12 17:39:00,48.8,33.3,30.06,NNE,27,0.0,0.0,55,0.00,,,0.00,Wunderground v.1.13,2013-02-12 22:39:00,
2013-02-12 17:44:00,48.6,33.6,30.05,NNE,27,0.0,0.0,56,0.00,,,0.00,Wunderground v.1.13,2013-02-12 22:44:00,
2013-02-12 17:51:00,48.5,33.5,30.04,NNE,27,0.0,0.0,56,0.00,,,0.00,Wunderground v.1.13,2013-02-12 22:51:00,
2013-02-12 17:56:00,48.3,33.3,30.04,NNE,27,0.0,0.0,56,0.00,,,0.00,Wunderground v.1.13,2013-02-12 22:56:00,
2013-02-12 18:02:00,48.1,34.0,30.03,NNE,27,0.0,0.0,58,0.00,,,0.00,Wunderground v.1.13,2013-02-12 23:02:00,
2013-02-12 18:08:00,47.9,32.9,30.03,NNE,27,0.0,0.0,56,0.00,,,0.00,Wunderground v.1.13,2013-02-12 23:08:00,
2013-02-12 18:13:00,47.7,33.6,30.03,NNE,27,0.0,0.0,58,0.00,,,0.00,Wunderground v.1.13,2013-02-12 23:13:00,
2013-02-12 18:19:00,47.5,33.0,30.02,NNE,27,0.0,0.0,57,0.00,,,0.00,Wunderground v.1.13,2013-02-12 23:19:00,
2013-02-12 18:25:00,47.3,32.8,30.02,NNE,27,0.0,0.0,57,0.00,,,0.00,Wunderground v.1.13,2013-02-12 23:25:00,
2013-02-12 18:30:00,47.1,33.1,30.02,NNE,27,0.0,0.0,58,0.00,,,0.00,Wunderground v.1.13,2013-02-12 23:30:00,
2013-02-12 18:35:00,47.0,33.0,30.02,NNE,27,0.0,0.0,58,0.00,,,0.00,Wunderground v.1.13,2013-02-12 23:35:00,
2013-02-12 18:41:00,46.8,33.6,30.02,NNE,27,0.0,0.0,60,0.00,,,0.00,Wunderground v.1.13,2013-02-12 23:41:00,
2013-02-12 18:47:00,46.7,34.8,30.02,NNE,27,0.0,0.0,63,0.00,,,0.00,Wunderground v.1.13,2013-02-12 23:47:00,
2013-02-12 18:52:00,46.5,35.0,30.04,NNE,27,0.0,0.0,64,0.00,,,0.00,Wunderground v.1.13,2013-02-12 23:52:00,
2013-02-12 18:58:00,46.1,34.6,30.04,NNE,27,0.0,0.0,64,0.00,,,0.00,Wunderground v.1.13,2013-02-12 23:58:00,
2013-02-12 19:04:00,45.9,34.8,30.05,NNE,27,0.0,0.0,65,0.00,,,0.00,Wunderground v.1.13,2013-02-13 00:04:00,
2013-02-12 19:10:00,45.6,34.9,30.05,NNE,27,0.0,0.0,66,0.00,,,0.00,Wunderground v.1.13,2013-02-13 00:10:00,
2013-02-12 19:15:00,45.2,35.3,30.05,NNE,27,0.0,0.0,68,0.00,,,0.00,Wunderground v.1.13,2013-02-13 00:15:00,
2013-02-12 19:21:00,45.0,34.3,30.06,NNE,26,0.0,3.0,66,0.00,,,0.00,Wunderground v.1.13,2013-02-13 00:21:00,
2013-02-12 19:27:00,44.9,35.0,30.07,North,360,2.0,3.0,68,0.00,,,0.00,Wunderground v.1.13,2013-02-13 00:27:00,
2013-02-12 19:32:00,44.8,34.1,30.06,North,360,2.0,2.0,66,0.00,,,0.00,Wunderground v.1.13,2013-02-13 00:32:00,
2013-02-12 19:37:00,45.0,34.3,30.05,North,360,1.0,2.0,66,0.00,,,0.00,Wunderground v.1.13,2013-02-13 00:37:00,
2013-02-12 19:43:00,45.0,34.3,30.06,North,360,1.0,2.0,66,0.00,,,0.00,Wunderground v.1.13,2013-02-13 00:43:00,
2013-02-12 19:49:00,45.0,33.9,30.07,North,355,2.0,4.0,65,0.00,,,0.00,Wunderground v.1.13,2013-02-13 00:49:00,
2013-02-12 19:54:00,45.2,34.9,30.06,North,355,2.0,2.0,67,0.00,,,0.00,Wunderground v.1.13,2013-02-13 00:54:00,
2013-02-12 20:00:00,45.2,34.1,30.06,North,355,0.0,0.0,65,0.00,,,0.00,Wunderground v.1.13,2013-02-13 01:00:00,
2013-02-12 20:06:00,45.2,34.5,30.06,North,355,0.0,0.0,66,0.00,,,0.00,Wunderground v.1.13,2013-02-13 01:06:00,
2013-02-12 20:11:00,45.2,34.9,30.06,North,355,0.0,0.0,67,0.00,,,0.00,Wunderground v.1.13,2013-02-13 01:11:00,
2013-02-12 20:17:00,45.1,34.8,30.06,North,355,0.0,0.0,67,0.00,,,0.00,Wunderground v.1.13,2013-02-13 01:17:00,
2013-02-12 20:23:00,45.0,35.1,30.05,North,355,0.0,0.0,68,0.00,,,0.00,Wunderground v.1.13,2013-02-13 01:23:00,
2013-02-12 20:28:00,45.0,34.3,30.05,North,355,0.0,0.0,66,0.00,,,0.00,Wunderground v.1.13,2013-02-13 01:28:00,
2013-02-12 20:34:00,44.9,34.6,30.05,North,355,0.0,0.0,67,0.00,,,0.00,Wunderground v.1.13,2013-02-13 01:34:00,
2013-02-12 20:40:00,44.9,35.7,30.04,North,355,0.0,0.0,70,0.00,,,0.00,Wunderground v.1.13,2013-02-13 01:40:00,
2013-02-12 20:46:00,44.7,35.1,30.04,North,355,0.0,0.0,69,0.00,,,0.00,Wunderground v.1.13,2013-02-13 01:46:00,
2013-02-12 20:51:00,44.5,35.3,30.04,North,355,1.0,1.0,70,0.00,,,0.00,Wunderground v.1.13,2013-02-13 01:51:00,
2013-02-12 20:57:00,44.3,35.5,30.04,North,355,1.0,3.0,71,0.00,,,0.00,Wunderground v.1.13,2013-02-13 01:57:00,
2013-02-12 21:03:00,44.2,36.1,30.04,North,355,1.0,1.0,73,0.00,,,0.00,Wunderground v.1.13,2013-02-13 02:03:00,
2013-02-12 21:08:00,44.1,37.0,30.04,North,355,0.0,1.0,76,0.00,,,0.00,Wunderground v.1.13,2013-02-13 02:08:00,
2013-02-12 21:14:00,43.8,37.4,30.04,North,355,0.0,0.0,78,0.00,,,0.00,Wunderground v.1.13,2013-02-13 02:14:00,
2013-02-12 21:19:00,43.2,37.4,30.03,North,355,1.0,1.0,80,0.00,,,0.01,Wunderground v.1.13,2013-02-13 02:19:00,
2013-02-12 21:25:00,42.8,37.1,30.02,North,355,1.0,2.0,80,0.00,,,0.01,Wunderground v.1.13,2013-02-13 02:25:00,
2013-02-12 21:31:00,42.5,37.4,30.02,North,355,0.0,0.0,82,0.00,,,0.01,Wunderground v.1.13,2013-02-13 02:31:00,
2013-02-12 21:36:00,42.4,37.6,30.02,North,355,0.0,0.0,83,0.04,,,0.02,Wunderground v.1.13,2013-02-13 02:36:00,
2013-02-12 21:41:00,42.2,37.4,30.02,North,355,0.0,1.0,83,0.04,,,0.02,Wunderground v.1.13,2013-02-13 02:41:00,
2013-02-12 21:47:00,42.1,37.6,30.03,North,355,0.0,0.0,84,0.04,,,0.02,Wunderground v.1.13,2013-02-13 02:47:00,
2013-02-12 21:53:00,42.1,37.9,30.02,North,355,0.0,0.0,85,0.00,,,0.02,Wunderground v.1.13,2013-02-13 02:53:00,
2013-02-12 21:58:00,42.1,37.9,30.02,North,355,0.0,0.0,85,0.00,,,0.02,Wunderground v.1.13,2013-02-13 02:58:00,
2013-02-12 22:04:00,42.1,38.2,30.02,North,355,0.0,0.0,86,0.00,,,0.02,Wunderground v.1.13,2013-02-13 03:04:00,
2013-02-12 22:09:00,42.1,38.2,30.02,North,355,0.0,0.0,86,0.00,,,0.02,Wunderground v.1.13,2013-02-13 03:09:00,
2013-02-12 22:15:00,42.0,38.4,30.01,North,355,0.0,0.0,87,0.00,,,0.02,Wunderground v.1.13,2013-02-13 03:15:00,
2013-02-12 22:20:00,41.9,38.3,30.00,North,355,0.0,0.0,87,0.00,,,0.02,Wunderground v.1.13,2013-02-13 03:20:00,
2013-02-12 22:26:00,41.8,38.2,29.99,North,355,0.0,0.0,87,0.00,,,0.02,Wunderground v.1.13,2013-02-13 03:26:00,
2013-02-12 22:32:00,41.7,38.1,29.99,North,355,0.0,0.0,87,0.00,,,0.02,Wunderground v.1.13,2013-02-13 03:32:00,
2013-02-12 22:38:00,41.6,38.0,29.98,North,355,0.0,0.0,87,0.00,,,0.02,Wunderground v.1.13,2013-02-13 03:38:00,
2013-02-12 22:43:00,41.6,38.3,29.98,North,355,0.0,0.0,88,0.00,,,0.02,Wunderground v.1.13,2013-02-13 03:43:00,
2013-02-12 22:49:00,41.7,38.4,29.97,North,355,0.0,0.0,88,0.00,,,0.03,Wunderground v.1.13,2013-02-13 03:49:00,
2013-02-12 22:54:00,41.6,38.3,29.98,North,355,0.0,0.0,88,0.00,,,0.03,Wunderground v.1.13,2013-02-13 03:54:00,
2013-02-12 23:01:00,41.6,38.3,29.98,North,355,0.0,0.0,88,0.00,,,0.03,Wunderground v.1.13,2013-02-13 04:01:00,
2013-02-12 23:06:00,41.5,38.2,29.98,North,355,0.0,0.0,88,0.00,,,0.03,Wunderground v.1.13,2013-02-13 04:06:00,
2013-02-12 23:12:00,41.5,38.2,29.97,North,355,0.0,0.0,88,0.00,,,0.03,Wunderground v.1.13,2013-02-13 04:12:00,
2013-02-12 23:17:00,41.6,38.3,29.97,North,355,0.0,0.0,88,0.00,,,0.03,Wunderground v.1.13,2013-02-13 04:17:00,
2013-02-12 23:23:00,41.6,38.3,29.97,North,355,0.0,0.0,88,0.00,,,0.03,Wunderground v.1.13,2013-02-13 04:23:00,
2013-02-12 23:29:00,41.6,38.3,29.97,North,355,0.0,0.0,88,0.00,,,0.03,Wunderground v.1.13,2013-02-13 04:29:00,
2013-02-12 23:35:00,41.6,38.3,29.97,North,360,1.0,1.0,88,0.00,,,0.03,Wunderground v.1.13,2013-02-13 04:35:00,
2013-02-12 23:40:00,41.7,38.4,29.95,North,360,1.0,3.0,88,0.00,,,0.03,Wunderground v.1.13,2013-02-13 04:40:00,
2013-02-12 23:46:00,41.8,38.5,29.96,NNE,15,1.0,2.0,88,0.00,,,0.03,Wunderground v.1.13,2013-02-13 04:46:00,
2013-02-12 23:51:00,42.0,38.4,29.96,NNE,22,1.0,1.0,87,0.00,,,0.03,Wunderground v.1.13,2013-02-13 04:51:00,
2013-02-12 23:57:00,42.2,38.6,29.95,ENE,65,2.0,5.0,87,0.00,,,0.03,Wunderground v.1.13,2013-02-13 04:57:00,